sensor_id;sensor_type;location;lat;lon;timestamp;temperature;humidity
2995;DHT22;35277;49.890;8.222;2023-01-09T00:00:00;21.90;74.40
2995;DHT22;35277;49.890;8.222;2023-01-09T00:02:30;21.90;74.30
2995;DHT22;35277;49.890;8.222;2023-01-09T00:04:59;21.90;74.30
2995;DHT22;35277;49.890;8.222;2023-01-09T00:07:28;21.90;74.30
2995;DHT22;35277;49.890;8.222;2023-01-09T00:09:55;21.90;74.30
2995;DHT22;35277;49.890;8.222;2023-01-09T00:12:23;21.90;74.30
2995;DHT22;35277;49.890;8.222;2023-01-09T00:14:51;21.90;74.30
2995;DHT22;35277;49.890;8.222;2023-01-09T00:17:18;21.90;74.30
2995;DHT22;35277;49.890;8.222;2023-01-09T00:19:46;21.90;74.30
2995;DHT22;35277;49.890;8.222;2023-01-09T00:22:14;21.90;74.30
2995;DHT22;35277;49.890;8.222;2023-01-09T00:24:43;21.90;74.30
2995;DHT22;35277;49.890;8.222;2023-01-09T00:27:11;21.90;74.20
2995;DHT22;35277;49.890;8.222;2023-01-09T00:29:39;21.90;74.30
2995;DHT22;35277;49.890;8.222;2023-01-09T00:32:10;21.90;74.30
2995;DHT22;35277;49.890;8.222;2023-01-09T00:34:39;21.90;74.20
2995;DHT22;35277;49.890;8.222;2023-01-09T00:37:08;21.90;74.20
2995;DHT22;35277;49.890;8.222;2023-01-09T00:39:38;21.90;74.20
2995;DHT22;35277;49.890;8.222;2023-01-09T00:42:11;21.90;74.20
2995;DHT22;35277;49.890;8.222;2023-01-09T00:44:44;22.00;75.20
2995;DHT22;35277;49.890;8.222;2023-01-09T00:47:15;21.90;74.30
2995;DHT22;35277;49.890;8.222;2023-01-09T00:49:44;21.90;74.20
2995;DHT22;35277;49.890;8.222;2023-01-09T00:52:13;21.90;74.30
2995;DHT22;35277;49.890;8.222;2023-01-09T00:54:41;21.90;74.20
2995;DHT22;35277;49.890;8.222;2023-01-09T00:57:12;22.00;74.30
2995;DHT22;35277;49.890;8.222;2023-01-09T00:59:40;21.90;74.20
2995;DHT22;35277;49.890;8.222;2023-01-09T01:02:08;21.90;74.20
2995;DHT22;35277;49.890;8.222;2023-01-09T01:04:36;21.90;74.20
2995;DHT22;35277;49.890;8.222;2023-01-09T01:07:22;21.90;74.20
2995;DHT22;35277;49.890;8.222;2023-01-09T01:10:07;21.90;74.20
2995;DHT22;35277;49.890;8.222;2023-01-09T01:12:38;21.90;74.30
2995;DHT22;35277;49.890;8.222;2023-01-09T01:15:07;21.90;74.20
2995;DHT22;35277;49.890;8.222;2023-01-09T01:17:36;21.90;74.30
2995;DHT22;35277;49.890;8.222;2023-01-09T01:20:06;21.90;74.20
2995;DHT22;35277;49.890;8.222;2023-01-09T01:22:34;21.90;74.20
2995;DHT22;35277;49.890;8.222;2023-01-09T01:25:02;21.90;74.20
2995;DHT22;35277;49.890;8.222;2023-01-09T01:27:30;21.90;74.20
2995;DHT22;35277;49.890;8.222;2023-01-09T01:30:00;21.90;74.20
2995;DHT22;35277;49.890;8.222;2023-01-09T01:32:27;21.90;74.20
2995;DHT22;35277;49.890;8.222;2023-01-09T01:34:55;21.90;74.20
2995;DHT22;35277;49.890;8.222;2023-01-09T01:37:23;21.90;74.20
2995;DHT22;35277;49.890;8.222;2023-01-09T01:39:50;21.90;74.20
2995;DHT22;35277;49.890;8.222;2023-01-09T01:42:19;22.00;74.30
2995;DHT22;35277;49.890;8.222;2023-01-09T01:45:07;22.00;74.30
2995;DHT22;35277;49.890;8.222;2023-01-09T01:47:41;22.00;74.30
2995;DHT22;35277;49.890;8.222;2023-01-09T01:50:16;22.00;74.30
2995;DHT22;35277;49.890;8.222;2023-01-09T01:52:49;21.90;74.10
2995;DHT22;35277;49.890;8.222;2023-01-09T01:55:18;21.90;74.10
2995;DHT22;35277;49.890;8.222;2023-01-09T01:57:49;21.90;74.10
2995;DHT22;35277;49.890;8.222;2023-01-09T02:00:30;22.00;74.30
2995;DHT22;35277;49.890;8.222;2023-01-09T02:02:58;21.90;74.20
2995;DHT22;35277;49.890;8.222;2023-01-09T02:05:27;22.00;74.30
2995;DHT22;35277;49.890;8.222;2023-01-09T02:07:55;22.00;74.30
2995;DHT22;35277;49.890;8.222;2023-01-09T02:10:24;22.00;74.20
2995;DHT22;35277;49.890;8.222;2023-01-09T02:12:52;22.00;74.30
2995;DHT22;35277;49.890;8.222;2023-01-09T02:15:19;22.00;74.20
2995;DHT22;35277;49.890;8.222;2023-01-09T02:18:08;22.00;74.20
2995;DHT22;35277;49.890;8.222;2023-01-09T02:20:52;21.90;74.10
2995;DHT22;35277;49.890;8.222;2023-01-09T02:23:56;21.90;74.10
2995;DHT22;35277;49.890;8.222;2023-01-09T02:29:44;22.00;74.20
2995;DHT22;35277;49.890;8.222;2023-01-09T02:32:22;21.90;74.10
2995;DHT22;35277;49.890;8.222;2023-01-09T02:34:56;22.00;74.30
2995;DHT22;35277;49.890;8.222;2023-01-09T02:37:36;21.90;74.10
2995;DHT22;35277;49.890;8.222;2023-01-09T02:40:13;21.90;74.20
2995;DHT22;35277;49.890;8.222;2023-01-09T02:42:43;21.90;74.30
2995;DHT22;35277;49.890;8.222;2023-01-09T02:45:12;22.00;74.40
2995;DHT22;35277;49.890;8.222;2023-01-09T02:47:42;21.90;74.30
2995;DHT22;35277;49.890;8.222;2023-01-09T02:50:14;22.00;74.50
2995;DHT22;35277;49.890;8.222;2023-01-09T02:52:59;22.00;74.50
2995;DHT22;35277;49.890;8.222;2023-01-09T02:55:44;22.00;74.50
2995;DHT22;35277;49.890;8.222;2023-01-09T02:58:27;22.00;74.50
2995;DHT22;35277;49.890;8.222;2023-01-09T03:01:05;22.00;74.50
2995;DHT22;35277;49.890;8.222;2023-01-09T03:03:45;21.90;74.40
2995;DHT22;35277;49.890;8.222;2023-01-09T03:06:19;22.00;74.50
2995;DHT22;35277;49.890;8.222;2023-01-09T03:08:55;22.00;74.60
2995;DHT22;35277;49.890;8.222;2023-01-09T03:11:27;21.90;74.40
2995;DHT22;35277;49.890;8.222;2023-01-09T03:14:02;21.90;74.50
2995;DHT22;35277;49.890;8.222;2023-01-09T03:16:35;21.90;74.40
2995;DHT22;35277;49.890;8.222;2023-01-09T03:19:06;21.90;74.40
2995;DHT22;35277;49.890;8.222;2023-01-09T03:21:37;21.90;74.40
2995;DHT22;35277;49.890;8.222;2023-01-09T03:24:05;21.90;74.40
2995;DHT22;35277;49.890;8.222;2023-01-09T03:26:34;22.00;74.50
2995;DHT22;35277;49.890;8.222;2023-01-09T03:29:02;21.90;74.40
2995;DHT22;35277;49.890;8.222;2023-01-09T03:31:30;21.90;74.40
2995;DHT22;35277;49.890;8.222;2023-01-09T03:33:58;21.90;74.40
2995;DHT22;35277;49.890;8.222;2023-01-09T03:36:27;21.90;74.40
2995;DHT22;35277;49.890;8.222;2023-01-09T03:38:54;21.90;74.40
2995;DHT22;35277;49.890;8.222;2023-01-09T03:41:22;21.90;74.40
2995;DHT22;35277;49.890;8.222;2023-01-09T03:43:50;21.90;74.40
2995;DHT22;35277;49.890;8.222;2023-01-09T03:46:17;21.90;74.40
2995;DHT22;35277;49.890;8.222;2023-01-09T03:48:45;21.90;74.40
2995;DHT22;35277;49.890;8.222;2023-01-09T03:51:13;21.90;74.30
2995;DHT22;35277;49.890;8.222;2023-01-09T03:53:42;21.90;74.30
2995;DHT22;35277;49.890;8.222;2023-01-09T03:56:10;21.90;74.30
2995;DHT22;35277;49.890;8.222;2023-01-09T03:58:38;21.90;74.30
2995;DHT22;35277;49.890;8.222;2023-01-09T04:01:05;21.90;74.30
2995;DHT22;35277;49.890;8.222;2023-01-09T04:03:35;21.90;74.30
2995;DHT22;35277;49.890;8.222;2023-01-09T04:06:03;21.90;74.30
2995;DHT22;35277;49.890;8.222;2023-01-09T04:08:31;21.90;74.30
2995;DHT22;35277;49.890;8.222;2023-01-09T04:11:00;21.90;74.30
2995;DHT22;35277;49.890;8.222;2023-01-09T04:13:28;21.90;74.20
2995;DHT22;35277;49.890;8.222;2023-01-09T04:15:56;21.90;74.30
2995;DHT22;35277;49.890;8.222;2023-01-09T04:18:24;21.90;74.20
2995;DHT22;35277;49.890;8.222;2023-01-09T04:20:51;21.90;74.20
2995;DHT22;35277;49.890;8.222;2023-01-09T04:23:21;21.90;74.20
2995;DHT22;35277;49.890;8.222;2023-01-09T04:25:49;21.90;74.20
2995;DHT22;35277;49.890;8.222;2023-01-09T04:28:19;21.90;75.00
2995;DHT22;35277;49.890;8.222;2023-01-09T04:30:46;21.90;74.20
2995;DHT22;35277;49.890;8.222;2023-01-09T04:33:14;21.90;74.20
2995;DHT22;35277;49.890;8.222;2023-01-09T04:35:42;21.90;74.20
2995;DHT22;35277;49.890;8.222;2023-01-09T04:38:09;21.90;74.20
2995;DHT22;35277;49.890;8.222;2023-01-09T04:40:38;21.90;74.10
2995;DHT22;35277;49.890;8.222;2023-01-09T04:43:06;21.90;74.20
2995;DHT22;35277;49.890;8.222;2023-01-09T04:45:35;21.90;74.10
2995;DHT22;35277;49.890;8.222;2023-01-09T04:48:03;21.90;74.10
2995;DHT22;35277;49.890;8.222;2023-01-09T04:50:31;21.90;74.20
2995;DHT22;35277;49.890;8.222;2023-01-09T04:52:59;21.90;74.10
2995;DHT22;35277;49.890;8.222;2023-01-09T04:55:27;21.90;74.10
2995;DHT22;35277;49.890;8.222;2023-01-09T04:57:54;21.90;74.10
2995;DHT22;35277;49.890;8.222;2023-01-09T05:00:22;21.90;74.10
2995;DHT22;35277;49.890;8.222;2023-01-09T05:02:51;21.90;74.20
2995;DHT22;35277;49.890;8.222;2023-01-09T05:05:19;21.90;74.30
2995;DHT22;35277;49.890;8.222;2023-01-09T05:07:47;21.90;74.30
2995;DHT22;35277;49.890;8.222;2023-01-09T05:10:15;21.90;74.40
2995;DHT22;35277;49.890;8.222;2023-01-09T05:12:42;21.90;74.40
2995;DHT22;35277;49.890;8.222;2023-01-09T05:15:11;21.90;74.50
2995;DHT22;35277;49.890;8.222;2023-01-09T05:17:38;21.90;74.50
2995;DHT22;35277;49.890;8.222;2023-01-09T05:20:08;21.90;74.50
2995;DHT22;35277;49.890;8.222;2023-01-09T05:22:36;21.90;74.50
2995;DHT22;35277;49.890;8.222;2023-01-09T05:25:05;21.90;74.50
2995;DHT22;35277;49.890;8.222;2023-01-09T05:27:33;21.90;74.50
2995;DHT22;35277;49.890;8.222;2023-01-09T05:30:00;21.90;74.40
2995;DHT22;35277;49.890;8.222;2023-01-09T05:32:28;21.90;74.40
2995;DHT22;35277;49.890;8.222;2023-01-09T05:34:56;21.90;74.40
2995;DHT22;35277;49.890;8.222;2023-01-09T05:37:25;21.90;74.30
2995;DHT22;35277;49.890;8.222;2023-01-09T05:39:53;21.90;74.20
2995;DHT22;35277;49.890;8.222;2023-01-09T05:42:20;21.90;74.20
2995;DHT22;35277;49.890;8.222;2023-01-09T05:44:48;21.80;74.10
2995;DHT22;35277;49.890;8.222;2023-01-09T05:47:16;21.90;74.20
2995;DHT22;35277;49.890;8.222;2023-01-09T05:49:43;21.90;74.10
2995;DHT22;35277;49.890;8.222;2023-01-09T05:52:11;21.90;74.10
2995;DHT22;35277;49.890;8.222;2023-01-09T05:54:40;21.80;73.90
2995;DHT22;35277;49.890;8.222;2023-01-09T05:57:08;21.80;73.90
2995;DHT22;35277;49.890;8.222;2023-01-09T05:59:36;21.90;73.90
2995;DHT22;35277;49.890;8.222;2023-01-09T06:02:03;21.80;73.70
2995;DHT22;35277;49.890;8.222;2023-01-09T06:04:31;21.80;73.70
2995;DHT22;35277;49.890;8.222;2023-01-09T06:06:59;21.90;73.70
2995;DHT22;35277;49.890;8.222;2023-01-09T06:09:27;21.90;73.70
2995;DHT22;35277;49.890;8.222;2023-01-09T06:11:57;21.80;73.50
2995;DHT22;35277;49.890;8.222;2023-01-09T06:14:25;21.80;73.50
2995;DHT22;35277;49.890;8.222;2023-01-09T06:16:52;21.90;73.70
2995;DHT22;35277;49.890;8.222;2023-01-09T06:19:20;21.90;73.90
2995;DHT22;35277;49.890;8.222;2023-01-09T06:21:48;21.90;73.90
2995;DHT22;35277;49.890;8.222;2023-01-09T06:24:16;21.90;73.90
2995;DHT22;35277;49.890;8.222;2023-01-09T06:26:44;21.90;73.90
2995;DHT22;35277;49.890;8.222;2023-01-09T06:29:14;21.80;73.80
2995;DHT22;35277;49.890;8.222;2023-01-09T06:31:41;21.90;73.90
2995;DHT22;35277;49.890;8.222;2023-01-09T06:34:09;21.90;73.90
2995;DHT22;35277;49.890;8.222;2023-01-09T06:36:38;21.90;73.80
2995;DHT22;35277;49.890;8.222;2023-01-09T06:39:06;21.90;73.80
2995;DHT22;35277;49.890;8.222;2023-01-09T06:41:33;21.90;73.80
2995;DHT22;35277;49.890;8.222;2023-01-09T06:44:02;21.90;73.80
2995;DHT22;35277;49.890;8.222;2023-01-09T06:46:31;21.90;73.70
2995;DHT22;35277;49.890;8.222;2023-01-09T06:48:59;21.90;73.80
2995;DHT22;35277;49.890;8.222;2023-01-09T06:51:27;21.90;73.70
2995;DHT22;35277;49.890;8.222;2023-01-09T06:53:55;21.90;73.70
2995;DHT22;35277;49.890;8.222;2023-01-09T06:56:22;21.90;73.70
2995;DHT22;35277;49.890;8.222;2023-01-09T06:58:50;21.90;73.60
2995;DHT22;35277;49.890;8.222;2023-01-09T07:01:18;21.90;73.60
2995;DHT22;35277;49.890;8.222;2023-01-09T07:03:47;22.00;73.70
2995;DHT22;35277;49.890;8.222;2023-01-09T07:06:15;22.00;73.70
2995;DHT22;35277;49.890;8.222;2023-01-09T07:08:43;22.00;73.70
2995;DHT22;35277;49.890;8.222;2023-01-09T07:11:13;21.90;73.60
2995;DHT22;35277;49.890;8.222;2023-01-09T07:13:41;21.90;73.60
2995;DHT22;35277;49.890;8.222;2023-01-09T07:16:09;21.90;73.50
2995;DHT22;35277;49.890;8.222;2023-01-09T07:18:37;22.00;73.60
2995;DHT22;35277;49.890;8.222;2023-01-09T07:21:06;22.00;73.60
2995;DHT22;35277;49.890;8.222;2023-01-09T07:23:34;22.00;73.60
2995;DHT22;35277;49.890;8.222;2023-01-09T07:26:01;21.90;73.50
2995;DHT22;35277;49.890;8.222;2023-01-09T07:28:30;22.00;73.60
2995;DHT22;35277;49.890;8.222;2023-01-09T07:30:57;21.90;73.40
2995;DHT22;35277;49.890;8.222;2023-01-09T07:33:27;21.90;73.40
2995;DHT22;35277;49.890;8.222;2023-01-09T07:35:55;21.90;73.40
2995;DHT22;35277;49.890;8.222;2023-01-09T07:38:25;21.90;73.30
2995;DHT22;35277;49.890;8.222;2023-01-09T07:40:53;21.90;73.30
2995;DHT22;35277;49.890;8.222;2023-01-09T07:43:21;21.90;73.30
2995;DHT22;35277;49.890;8.222;2023-01-09T07:45:48;21.90;73.30
2995;DHT22;35277;49.890;8.222;2023-01-09T07:48:16;21.90;73.20
2995;DHT22;35277;49.890;8.222;2023-01-09T07:50:44;21.90;73.10
2995;DHT22;35277;49.890;8.222;2023-01-09T07:53:12;21.90;73.10
2995;DHT22;35277;49.890;8.222;2023-01-09T07:55:42;21.90;73.10
2995;DHT22;35277;49.890;8.222;2023-01-09T07:58:10;21.90;73.00
2995;DHT22;35277;49.890;8.222;2023-01-09T08:00:38;21.90;73.00
2995;DHT22;35277;49.890;8.222;2023-01-09T08:03:05;21.90;72.90
2995;DHT22;35277;49.890;8.222;2023-01-09T08:05:33;21.90;72.90
2995;DHT22;35277;49.890;8.222;2023-01-09T08:08:01;21.90;72.90
2995;DHT22;35277;49.890;8.222;2023-01-09T08:10:29;21.90;72.90
2995;DHT22;35277;49.890;8.222;2023-01-09T08:12:58;21.90;72.80
2995;DHT22;35277;49.890;8.222;2023-01-09T08:15:26;21.90;72.80
2995;DHT22;35277;49.890;8.222;2023-01-09T08:17:53;21.90;72.70
2995;DHT22;35277;49.890;8.222;2023-01-09T08:20:21;21.90;72.70
2995;DHT22;35277;49.890;8.222;2023-01-09T08:22:49;21.90;72.70
2995;DHT22;35277;49.890;8.222;2023-01-09T08:25:19;21.90;72.60
2995;DHT22;35277;49.890;8.222;2023-01-09T08:27:47;21.90;72.60
2995;DHT22;35277;49.890;8.222;2023-01-09T08:30:17;21.90;72.60
2995;DHT22;35277;49.890;8.222;2023-01-09T08:32:48;21.90;72.60
2995;DHT22;35277;49.890;8.222;2023-01-09T08:35:16;21.80;72.50
2995;DHT22;35277;49.890;8.222;2023-01-09T08:37:44;21.80;72.50
2995;DHT22;35277;49.890;8.222;2023-01-09T08:40:13;21.90;72.60
2995;DHT22;35277;49.890;8.222;2023-01-09T08:42:41;21.80;72.50
2995;DHT22;35277;49.890;8.222;2023-01-09T08:45:28;21.90;72.60
2995;DHT22;35277;49.890;8.222;2023-01-09T08:48:13;21.90;72.50
2995;DHT22;35277;49.890;8.222;2023-01-09T08:50:41;21.90;72.60
2995;DHT22;35277;49.890;8.222;2023-01-09T08:53:10;21.90;72.50
2995;DHT22;35277;49.890;8.222;2023-01-09T08:55:37;21.90;72.50
2995;DHT22;35277;49.890;8.222;2023-01-09T08:58:05;21.80;72.40
2995;DHT22;35277;49.890;8.222;2023-01-09T09:00:34;21.80;71.00
2995;DHT22;35277;49.890;8.222;2023-01-09T09:03:02;21.70;68.50
2995;DHT22;35277;49.890;8.222;2023-01-09T09:05:31;21.50;67.10
2995;DHT22;35277;49.890;8.222;2023-01-09T09:07:59;21.30;65.80
2995;DHT22;35277;49.890;8.222;2023-01-09T09:10:28;21.00;64.70
2995;DHT22;35277;49.890;8.222;2023-01-09T09:12:57;20.90;63.50
2995;DHT22;35277;49.890;8.222;2023-01-09T09:15:26;20.60;62.90
2995;DHT22;35277;49.890;8.222;2023-01-09T09:17:56;20.50;62.40
2995;DHT22;35277;49.890;8.222;2023-01-09T09:20:26;20.30;62.00
2995;DHT22;35277;49.890;8.222;2023-01-09T09:22:54;20.20;62.20
2995;DHT22;35277;49.890;8.222;2023-01-09T09:25:22;20.10;62.10
2995;DHT22;35277;49.890;8.222;2023-01-09T09:27:50;19.90;61.90
2995;DHT22;35277;49.890;8.222;2023-01-09T09:30:19;19.80;62.10
2995;DHT22;35277;49.890;8.222;2023-01-09T09:32:47;19.70;62.70
2995;DHT22;35277;49.890;8.222;2023-01-09T09:35:17;19.70;63.20
2995;DHT22;35277;49.890;8.222;2023-01-09T09:37:52;19.90;63.70
2995;DHT22;35277;49.890;8.222;2023-01-09T09:40:31;20.00;64.10
2995;DHT22;35277;49.890;8.222;2023-01-09T09:43:13;20.10;64.30
2995;DHT22;35277;49.890;8.222;2023-01-09T09:46:06;20.20;65.40
2995;DHT22;35277;49.890;8.222;2023-01-09T09:48:40;20.30;64.70
2995;DHT22;35277;49.890;8.222;2023-01-09T09:51:23;20.40;64.90
2995;DHT22;35277;49.890;8.222;2023-01-09T09:53:55;20.50;65.10
2995;DHT22;35277;49.890;8.222;2023-01-09T09:56:27;20.60;65.20
2995;DHT22;35277;49.890;8.222;2023-01-09T09:58:58;20.70;65.40
2995;DHT22;35277;49.890;8.222;2023-01-09T10:01:32;20.80;65.60
2995;DHT22;35277;49.890;8.222;2023-01-09T10:04:05;20.80;65.60
2995;DHT22;35277;49.890;8.222;2023-01-09T10:06:41;20.90;65.70
2995;DHT22;35277;49.890;8.222;2023-01-09T10:09:17;20.90;65.80
2995;DHT22;35277;49.890;8.222;2023-01-09T10:11:54;21.00;66.00
2995;DHT22;35277;49.890;8.222;2023-01-09T10:14:23;21.00;66.00
2995;DHT22;35277;49.890;8.222;2023-01-09T10:17:09;21.10;66.20
2995;DHT22;35277;49.890;8.222;2023-01-09T10:19:52;21.10;66.30
2995;DHT22;35277;49.890;8.222;2023-01-09T10:22:29;21.20;66.40
2995;DHT22;35277;49.890;8.222;2023-01-09T10:25:11;21.20;66.50
2995;DHT22;35277;49.890;8.222;2023-01-09T10:27:59;21.20;66.60
2995;DHT22;35277;49.890;8.222;2023-01-09T10:30:38;21.30;66.70
2995;DHT22;35277;49.890;8.222;2023-01-09T10:33:21;21.30;66.70
2995;DHT22;35277;49.890;8.222;2023-01-09T10:36:10;21.30;66.80
2995;DHT22;35277;49.890;8.222;2023-01-09T10:38:45;21.40;66.90
2995;DHT22;35277;49.890;8.222;2023-01-09T10:41:17;21.40;66.90
2995;DHT22;35277;49.890;8.222;2023-01-09T10:43:52;21.40;67.00
2995;DHT22;35277;49.890;8.222;2023-01-09T10:46:23;21.50;67.10
2995;DHT22;35277;49.890;8.222;2023-01-09T10:48:54;21.50;67.10
2995;DHT22;35277;49.890;8.222;2023-01-09T10:51:30;21.40;67.10
2995;DHT22;35277;49.890;8.222;2023-01-09T10:54:06;21.50;67.20
2995;DHT22;35277;49.890;8.222;2023-01-09T10:56:40;21.60;67.30
2995;DHT22;35277;49.890;8.222;2023-01-09T10:59:08;21.60;67.40
2995;DHT22;35277;49.890;8.222;2023-01-09T11:01:38;21.60;67.40
2995;DHT22;35277;49.890;8.222;2023-01-09T11:04:19;21.60;67.40
2995;DHT22;35277;49.890;8.222;2023-01-09T11:06:50;21.60;67.50
2995;DHT22;35277;49.890;8.222;2023-01-09T11:09:20;21.60;67.50
2995;DHT22;35277;49.890;8.222;2023-01-09T11:11:48;21.60;67.50
2995;DHT22;35277;49.890;8.222;2023-01-09T11:14:23;21.70;67.70
2995;DHT22;35277;49.890;8.222;2023-01-09T11:16:55;21.70;67.70
2995;DHT22;35277;49.890;8.222;2023-01-09T11:19:24;21.70;67.70
2995;DHT22;35277;49.890;8.222;2023-01-09T11:22:06;21.70;67.80
2995;DHT22;35277;49.890;8.222;2023-01-09T11:24:36;21.70;67.80
2995;DHT22;35277;49.890;8.222;2023-01-09T11:27:22;21.70;67.80
2995;DHT22;35277;49.890;8.222;2023-01-09T11:30:20;21.70;67.90
2995;DHT22;35277;49.890;8.222;2023-01-09T11:32:54;21.80;68.00
2995;DHT22;35277;49.890;8.222;2023-01-09T11:35:26;21.80;68.10
2995;DHT22;35277;49.890;8.222;2023-01-09T11:38:04;21.80;68.10
2995;DHT22;35277;49.890;8.222;2023-01-09T11:40:45;21.80;68.10
2995;DHT22;35277;49.890;8.222;2023-01-09T11:43:18;21.80;68.10
2995;DHT22;35277;49.890;8.222;2023-01-09T11:45:49;21.80;68.10
2995;DHT22;35277;49.890;8.222;2023-01-09T11:48:38;21.80;68.10
2995;DHT22;35277;49.890;8.222;2023-01-09T11:51:17;21.80;68.10
2995;DHT22;35277;49.890;8.222;2023-01-09T11:54:05;21.80;68.10
2995;DHT22;35277;49.890;8.222;2023-01-09T11:56:39;21.80;68.10
2995;DHT22;35277;49.890;8.222;2023-01-09T11:59:11;21.90;68.20
2995;DHT22;35277;49.890;8.222;2023-01-09T12:04:49;21.90;68.30
2995;DHT22;35277;49.890;8.222;2023-01-09T12:07:51;21.90;68.30
2995;DHT22;35277;49.890;8.222;2023-01-09T12:10:35;21.90;68.30
2995;DHT22;35277;49.890;8.222;2023-01-09T12:13:20;21.90;68.30
2995;DHT22;35277;49.890;8.222;2023-01-09T12:15:57;21.90;68.30
2995;DHT22;35277;49.890;8.222;2023-01-09T12:18:39;21.90;68.30
2995;DHT22;35277;49.890;8.222;2023-01-09T12:21:20;21.90;68.40
2995;DHT22;35277;49.890;8.222;2023-01-09T12:24:07;21.90;68.30
2995;DHT22;35277;49.890;8.222;2023-01-09T12:26:41;21.90;68.30
2995;DHT22;35277;49.890;8.222;2023-01-09T12:29:51;21.90;68.40
2995;DHT22;35277;49.890;8.222;2023-01-09T12:32:31;21.90;68.40
2995;DHT22;35277;49.890;8.222;2023-01-09T12:35:06;22.00;68.40
2995;DHT22;35277;49.890;8.222;2023-01-09T12:38:01;21.90;68.30
2995;DHT22;35277;49.890;8.222;2023-01-09T12:40:50;22.00;68.40
2995;DHT22;35277;49.890;8.222;2023-01-09T12:43:29;22.00;68.50
2995;DHT22;35277;49.890;8.222;2023-01-09T12:46:11;22.00;68.40
2995;DHT22;35277;49.890;8.222;2023-01-09T12:49:00;22.00;69.30
2995;DHT22;35277;49.890;8.222;2023-01-09T12:51:37;22.00;68.40
2995;DHT22;35277;49.890;8.222;2023-01-09T12:54:11;22.00;68.50
2995;DHT22;35277;49.890;8.222;2023-01-09T12:56:45;22.00;68.50
2995;DHT22;35277;49.890;8.222;2023-01-09T12:59:21;22.00;68.40
2995;DHT22;35277;49.890;8.222;2023-01-09T13:02:02;22.00;68.40
2995;DHT22;35277;49.890;8.222;2023-01-09T13:04:37;22.00;68.50
2995;DHT22;35277;49.890;8.222;2023-01-09T13:07:15;22.10;68.80
2995;DHT22;35277;49.890;8.222;2023-01-09T13:09:48;22.10;69.00
2995;DHT22;35277;49.890;8.222;2023-01-09T13:12:18;22.10;69.10
2995;DHT22;35277;49.890;8.222;2023-01-09T13:14:52;22.10;69.10
2995;DHT22;35277;49.890;8.222;2023-01-09T13:17:25;22.20;69.40
2995;DHT22;35277;49.890;8.222;2023-01-09T13:19:54;22.20;69.40
2995;DHT22;35277;49.890;8.222;2023-01-09T13:22:25;22.20;69.40
2995;DHT22;35277;49.890;8.222;2023-01-09T13:25:15;22.20;69.50
2995;DHT22;35277;49.890;8.222;2023-01-09T13:27:53;22.20;69.50
2995;DHT22;35277;49.890;8.222;2023-01-09T13:30:35;22.30;69.60
2995;DHT22;35277;49.890;8.222;2023-01-09T13:33:13;22.30;69.60
2995;DHT22;35277;49.890;8.222;2023-01-09T13:35:50;22.30;69.60
2995;DHT22;35277;49.890;8.222;2023-01-09T13:38:21;22.30;69.60
2995;DHT22;35277;49.890;8.222;2023-01-09T13:41:01;22.30;69.60
2995;DHT22;35277;49.890;8.222;2023-01-09T13:43:53;22.30;69.70
2995;DHT22;35277;49.890;8.222;2023-01-09T13:46:22;22.30;69.60
2995;DHT22;35277;49.890;8.222;2023-01-09T13:48:51;22.30;69.70
2995;DHT22;35277;49.890;8.222;2023-01-09T13:51:55;22.30;69.70
2995;DHT22;35277;49.890;8.222;2023-01-09T13:57:31;22.30;69.70
2995;DHT22;35277;49.890;8.222;2023-01-09T14:03:16;22.20;69.70
2995;DHT22;35277;49.890;8.222;2023-01-09T14:09:10;22.20;69.80
2995;DHT22;35277;49.890;8.222;2023-01-09T14:11:39;22.20;69.90
2995;DHT22;35277;49.890;8.222;2023-01-09T14:14:20;22.20;69.90
2995;DHT22;35277;49.890;8.222;2023-01-09T14:16:49;22.20;69.90
2995;DHT22;35277;49.890;8.222;2023-01-09T14:19:30;22.20;69.90
2995;DHT22;35277;49.890;8.222;2023-01-09T14:21:59;22.20;69.90
2995;DHT22;35277;49.890;8.222;2023-01-09T14:24:31;22.20;69.80
2995;DHT22;35277;49.890;8.222;2023-01-09T14:27:00;22.20;69.80
2995;DHT22;35277;49.890;8.222;2023-01-09T14:29:44;22.20;69.80
2995;DHT22;35277;49.890;8.222;2023-01-09T14:32:36;22.30;69.90
2995;DHT22;35277;49.890;8.222;2023-01-09T14:35:14;22.30;69.80
2995;DHT22;35277;49.890;8.222;2023-01-09T14:37:44;22.30;69.80
2995;DHT22;35277;49.890;8.222;2023-01-09T14:40:20;22.30;69.80
2995;DHT22;35277;49.890;8.222;2023-01-09T14:42:51;22.30;69.70
2995;DHT22;35277;49.890;8.222;2023-01-09T14:45:22;22.30;69.80
2995;DHT22;35277;49.890;8.222;2023-01-09T14:47:53;22.30;69.70
2995;DHT22;35277;49.890;8.222;2023-01-09T14:50:28;22.20;69.60
2995;DHT22;35277;49.890;8.222;2023-01-09T14:53:02;22.20;69.60
2995;DHT22;35277;49.890;8.222;2023-01-09T14:55:39;22.20;69.50
2995;DHT22;35277;49.890;8.222;2023-01-09T14:58:10;22.20;69.60
2995;DHT22;35277;49.890;8.222;2023-01-09T15:00:46;22.30;69.70
2995;DHT22;35277;49.890;8.222;2023-01-09T15:03:15;22.20;69.50
2995;DHT22;35277;49.890;8.222;2023-01-09T15:05:43;22.20;69.50
2995;DHT22;35277;49.890;8.222;2023-01-09T15:08:14;22.20;69.50
2995;DHT22;35277;49.890;8.222;2023-01-09T15:10:45;22.20;69.50
2995;DHT22;35277;49.890;8.222;2023-01-09T15:13:17;22.20;69.50
2995;DHT22;35277;49.890;8.222;2023-01-09T15:15:46;22.20;69.50
2995;DHT22;35277;49.890;8.222;2023-01-09T15:18:20;22.20;69.50
2995;DHT22;35277;49.890;8.222;2023-01-09T15:20:53;22.20;69.40
2995;DHT22;35277;49.890;8.222;2023-01-09T15:23:26;22.20;69.40
2995;DHT22;35277;49.890;8.222;2023-01-09T15:25:56;22.20;69.40
2995;DHT22;35277;49.890;8.222;2023-01-09T15:28:27;22.20;69.40
2995;DHT22;35277;49.890;8.222;2023-01-09T15:31:00;22.20;69.40
2995;DHT22;35277;49.890;8.222;2023-01-09T15:33:28;22.10;69.30
2995;DHT22;35277;49.890;8.222;2023-01-09T15:35:56;22.20;69.40
2995;DHT22;35277;49.890;8.222;2023-01-09T15:38:30;22.10;69.40
2995;DHT22;35277;49.890;8.222;2023-01-09T15:41:03;22.10;69.50
2995;DHT22;35277;49.890;8.222;2023-01-09T15:43:33;22.10;69.60
2995;DHT22;35277;49.890;8.222;2023-01-09T15:46:02;22.10;69.70
2995;DHT22;35277;49.890;8.222;2023-01-09T15:48:32;22.10;69.70
2995;DHT22;35277;49.890;8.222;2023-01-09T15:51:02;22.10;69.70
2995;DHT22;35277;49.890;8.222;2023-01-09T15:53:31;22.10;69.80
2995;DHT22;35277;49.890;8.222;2023-01-09T15:56:06;22.10;69.90
2995;DHT22;35277;49.890;8.222;2023-01-09T15:58:42;22.10;69.90
2995;DHT22;35277;49.890;8.222;2023-01-09T16:01:23;22.10;70.70
2995;DHT22;35277;49.890;8.222;2023-01-09T16:03:52;22.10;69.90
2995;DHT22;35277;49.890;8.222;2023-01-09T16:06:23;22.10;69.80
2995;DHT22;35277;49.890;8.222;2023-01-09T16:08:52;22.10;69.80
2995;DHT22;35277;49.890;8.222;2023-01-09T16:11:24;22.10;69.80
2995;DHT22;35277;49.890;8.222;2023-01-09T16:13:55;22.10;69.80
2995;DHT22;35277;49.890;8.222;2023-01-09T16:16:26;22.10;69.80
2995;DHT22;35277;49.890;8.222;2023-01-09T16:18:55;22.10;69.80
2995;DHT22;35277;49.890;8.222;2023-01-09T16:21:30;22.10;69.70
2995;DHT22;35277;49.890;8.222;2023-01-09T16:24:00;22.10;69.70
2995;DHT22;35277;49.890;8.222;2023-01-09T16:26:31;22.10;69.80
2995;DHT22;35277;49.890;8.222;2023-01-09T16:29:26;22.10;69.70
2995;DHT22;35277;49.890;8.222;2023-01-09T16:31:59;22.10;69.70